Fabre, Canada
Current Conditions -  °F | °C
As of 9:00 PM on Sunday 25 Jan 2015 (Local Time) from CYXR Reporting Station
Clear Clear  
Wind Chill: -21°   Ceiling: Unl
Heat Index: -8°   Visibility: 9mi
Dew Point: -13°   Wind: 6mph
Humidity: 77%   Direction: 300°WNW
Pressure: 30.12"   Gusts: NA
Location:  47.2°N, 79.37°W
Report Text: CYXR 260200Z AUTO 30005KT 9SM CLR M22/M25 A3012 RMK SLP228
Loading
Personal Weather Stations






























Interactive Weather Map New forecast layout! Learn more

10-Day Weather Forecast

Advertisements
Track Severe Weather on mobile